createdAt,value
2022-12-27T00:01:26.699Z,100398.19
2022-12-27T00:03:54.781Z,100403.19
2022-12-27T00:06:25.078Z,100397.59
2022-12-27T00:08:53.331Z,100397.13
2022-12-27T00:11:23.128Z,100403.34
2022-12-27T00:13:50.742Z,100403.47
2022-12-27T00:16:20.800Z,100406.00
2022-12-27T00:18:49.066Z,100399.91
2022-12-27T00:21:18.085Z,100404.78
2022-12-27T00:23:49.145Z,100417.34
2022-12-27T00:26:17.799Z,100427.38
2022-12-27T00:28:45.812Z,100416.41
2022-12-27T00:31:14.048Z,100407.75
2022-12-27T00:33:43.596Z,100416.47
2022-12-27T00:36:14.861Z,100420.78
2022-12-27T00:38:42.971Z,100406.50
2022-12-27T00:41:12.033Z,100413.53
2022-12-27T00:43:39.856Z,100420.22
2022-12-27T00:46:08.115Z,100421.63
2022-12-27T00:48:35.753Z,100417.75
2022-12-27T00:51:06.740Z,100413.00
2022-12-27T00:53:35.280Z,100408.19
2022-12-27T00:56:07.356Z,100422.50
2022-12-27T00:58:40.636Z,100429.78
2022-12-27T01:01:10.367Z,100424.31
2022-12-27T01:03:38.299Z,100411.22
2022-12-27T01:06:06.434Z,100416.75
2022-12-27T01:08:34.044Z,100385.22
2022-12-27T01:11:01.951Z,100420.41
2022-12-27T01:13:29.550Z,100426.75
2022-12-27T01:15:58.594Z,100426.53
2022-12-27T01:18:26.501Z,100417.41
2022-12-27T01:20:54.070Z,100432.03
2022-12-27T01:23:21.576Z,100431.59
2022-12-27T01:25:49.053Z,100441.47
2022-12-27T01:28:16.561Z,100429.41
2022-12-27T01:30:44.094Z,100440.06
2022-12-27T01:33:12.937Z,100434.38
2022-12-27T01:35:40.464Z,100424.66
2022-12-27T01:38:08.035Z,100447.56
2022-12-27T01:40:36.559Z,100450.91
2022-12-27T01:43:03.503Z,100445.78
2022-12-27T01:45:33.896Z,100445.03
2022-12-27T01:48:04.757Z,100442.34
2022-12-27T01:50:35.862Z,100448.22
2022-12-27T01:53:10.078Z,100447.78
2022-12-27T01:55:41.219Z,100456.28
2022-12-27T01:58:12.152Z,100452.66
2022-12-27T02:00:41.402Z,100444.78
2022-12-27T02:03:08.959Z,100452.25
2022-12-27T02:05:41.668Z,100458.16
2022-12-27T02:08:18.300Z,100458.03
2022-12-27T02:10:46.681Z,100467.47
2022-12-27T02:13:15.357Z,100464.88
2022-12-27T02:15:42.888Z,100447.00
2022-12-27T02:18:10.423Z,100475.00
2022-12-27T02:20:55.334Z,100477.84
2022-12-27T02:23:57.786Z,100479.50
2022-12-27T02:26:33.753Z,100483.72
2022-12-27T02:29:16.571Z,100475.56
2022-12-27T02:31:50.227Z,100485.53
2022-12-27T02:34:21.378Z,100470.31
2022-12-27T02:36:50.412Z,100456.53
2022-12-27T02:39:18.972Z,100482.78
2022-12-27T02:42:05.141Z,100460.31
2022-12-27T02:44:51.785Z,100469.09
2022-12-27T02:47:40.373Z,100476.06
2022-12-27T02:50:26.206Z,100472.47
2022-12-27T02:53:07.691Z,100460.28
2022-12-27T02:56:06.463Z,100447.41
2022-12-27T02:58:38.981Z,100482.50
2022-12-27T03:01:34.944Z,100464.44
2022-12-27T03:04:14.745Z,100471.25
2022-12-27T03:06:55.381Z,100465.41
2022-12-27T03:09:57.357Z,100478.19
2022-12-27T03:12:48.822Z,100465.28
2022-12-27T03:15:46.474Z,100484.00
2022-12-27T03:18:19.919Z,100479.88
2022-12-27T03:21:07.468Z,100461.44
2022-12-27T03:23:53.938Z,100475.75
2022-12-27T03:26:23.266Z,100487.19
2022-12-27T03:29:09.486Z,100468.09
2022-12-27T03:31:58.225Z,100489.22
2022-12-27T03:34:38.159Z,100475.97
2022-12-27T03:37:26.718Z,100483.50
2022-12-27T03:39:59.888Z,100474.09
2022-12-27T03:42:46.766Z,100447.50
2022-12-27T03:45:15.200Z,100488.34
2022-12-27T03:47:45.185Z,100477.50
2022-12-27T03:50:17.429Z,100493.78
2022-12-27T03:52:48.768Z,100513.72
2022-12-27T03:55:17.799Z,100475.63
2022-12-27T03:57:45.347Z,100495.09
2022-12-27T04:00:13.983Z,100487.44
2022-12-27T04:02:41.984Z,100501.19
2022-12-27T04:05:10.206Z,100505.56
2022-12-27T04:07:39.067Z,100486.94
2022-12-27T04:10:24.733Z,100469.94
2022-12-27T04:13:09.500Z,100497.88
2022-12-27T04:15:54.573Z,100513.00
2022-12-27T04:18:39.839Z,100499.63
2022-12-27T04:21:25.187Z,100522.13
2022-12-27T04:24:11.723Z,100515.69
2022-12-27T04:26:56.834Z,100513.50
2022-12-27T04:29:42.494Z,100524.09
2022-12-27T04:32:27.804Z,100513.09
2022-12-27T04:34:55.441Z,100532.31
2022-12-27T04:37:22.949Z,100512.38
2022-12-27T04:40:05.830Z,100500.91
2022-12-27T04:42:51.168Z,100528.66
2022-12-27T04:45:37.104Z,100535.00
2022-12-27T04:48:23.352Z,100505.22
2022-12-27T04:51:11.928Z,100518.50
2022-12-27T04:53:57.093Z,100526.16
2022-12-27T04:56:25.957Z,100526.50
2022-12-27T04:59:10.736Z,100512.03
2022-12-27T05:01:56.191Z,100529.00
2022-12-27T05:04:23.812Z,100521.25
2022-12-27T05:06:51.376Z,100511.09
2022-12-27T05:09:36.991Z,100521.00
2022-12-27T05:12:23.906Z,100524.25
2022-12-27T05:14:51.417Z,100515.66
2022-12-27T05:17:18.914Z,100533.09
2022-12-27T05:19:46.373Z,100525.69
2022-12-27T05:22:31.441Z,100515.16
2022-12-27T05:25:16.411Z,100532.84
2022-12-27T05:27:45.229Z,100539.44
2022-12-27T05:30:13.349Z,100530.13
2022-12-27T05:32:40.818Z,100530.59
2022-12-27T05:35:09.088Z,100533.44
2022-12-27T05:37:36.645Z,100524.94
2022-12-27T05:40:04.868Z,100537.72
2022-12-27T05:42:32.760Z,100530.66
2022-12-27T05:45:01.614Z,100520.84
2022-12-27T05:47:31.748Z,100550.63
2022-12-27T05:49:59.264Z,100553.16
2022-12-27T05:52:26.796Z,100547.66
2022-12-27T05:54:54.301Z,100549.41
2022-12-27T05:57:21.839Z,100542.28
2022-12-27T05:59:49.298Z,100557.44
2022-12-27T06:02:18.207Z,100570.03
2022-12-27T06:04:45.748Z,100541.59
2022-12-27T06:07:14.238Z,100578.91
2022-12-27T06:09:42.013Z,100583.91
2022-12-27T06:12:09.538Z,100593.03
2022-12-27T06:14:37.003Z,100582.88
2022-12-27T06:17:04.583Z,100587.44
2022-12-27T06:19:33.427Z,100566.00
2022-12-27T06:22:00.927Z,100608.97
2022-12-27T06:24:28.441Z,100607.28
2022-12-27T06:26:55.896Z,100606.19
2022-12-27T06:29:23.655Z,100591.94
2022-12-27T06:31:51.191Z,100624.63
2022-12-27T06:34:18.948Z,100622.13
2022-12-27T06:36:50.965Z,100615.66
2022-12-27T06:39:18.620Z,100610.63
2022-12-27T06:41:46.117Z,100621.78
2022-12-27T06:44:15.050Z,100606.06
2022-12-27T06:46:43.192Z,100626.19
2022-12-27T06:49:11.175Z,100627.75
2022-12-27T06:51:38.641Z,100622.59
2022-12-27T06:54:07.606Z,100631.47
2022-12-27T06:56:35.146Z,100623.78
2022-12-27T06:59:02.641Z,100624.13
2022-12-27T07:01:30.214Z,100642.94
2022-12-27T07:03:59.216Z,100650.25
2022-12-27T07:06:28.548Z,100648.56
2022-12-27T07:08:56.796Z,100648.69
2022-12-27T07:11:26.229Z,100630.38
2022-12-27T07:13:55.493Z,100655.50
2022-12-27T07:16:24.928Z,100661.50
2022-12-27T07:18:52.948Z,100667.94
2022-12-27T07:21:22.029Z,100673.47
2022-12-27T07:23:50.328Z,100648.56
2022-12-27T07:26:19.891Z,100660.53
2022-12-27T07:28:49.010Z,100661.75
2022-12-27T07:31:18.294Z,100649.53
2022-12-27T07:33:46.098Z,100665.91
2022-12-27T07:36:15.745Z,100681.25
2022-12-27T07:38:43.226Z,100682.91
2022-12-27T07:41:11.904Z,100681.13
2022-12-27T07:43:39.612Z,100688.56
2022-12-27T07:46:10.811Z,100694.66
2022-12-27T07:48:39.066Z,100701.84
2022-12-27T07:51:07.374Z,100705.94
2022-12-27T07:53:35.326Z,100700.53
2022-12-27T07:56:06.801Z,100707.13
2022-12-27T07:58:37.397Z,100717.78
2022-12-27T08:01:05.483Z,100711.06
2022-12-27T08:03:34.524Z,100717.88
2022-12-27T08:06:02.152Z,100713.94
2022-12-27T08:08:33.945Z,100715.50
2022-12-27T08:11:05.468Z,100685.56
2022-12-27T08:13:33.965Z,100726.16
2022-12-27T08:16:01.649Z,100712.38
2022-12-27T08:18:30.587Z,100730.97
2022-12-27T08:20:59.443Z,100717.41
2022-12-27T08:23:29.128Z,100731.91
2022-12-27T08:25:57.171Z,100731.91
2022-12-27T08:28:25.098Z,100730.50
2022-12-27T08:30:52.586Z,100724.72
2022-12-27T08:33:20.125Z,100723.41
2022-12-27T08:35:55.258Z,100728.19
2022-12-27T08:38:24.166Z,100727.22
2022-12-27T08:40:52.076Z,100727.94
2022-12-27T08:43:19.651Z,100728.81
2022-12-27T08:45:47.175Z,100717.19
2022-12-27T08:48:15.363Z,100727.59
2022-12-27T08:50:42.976Z,100729.66
2022-12-27T08:53:11.075Z,100733.22
2022-12-27T08:55:39.845Z,100724.97
2022-12-27T08:58:15.488Z,100741.59
2022-12-27T09:00:43.638Z,100736.69
2022-12-27T09:03:11.628Z,100739.94
2022-12-27T09:05:41.902Z,100746.88
2022-12-27T09:08:10.185Z,100746.63
2022-12-27T09:10:37.923Z,100751.66
2022-12-27T09:13:06.976Z,100735.16
2022-12-27T09:15:34.734Z,100762.22
2022-12-27T09:18:03.030Z,100759.81
2022-12-27T09:20:30.605Z,100755.75
2022-12-27T09:22:59.593Z,100771.09
2022-12-27T09:25:27.153Z,100773.56
2022-12-27T09:27:55.097Z,100784.97
2022-12-27T09:30:26.101Z,100777.19
2022-12-27T09:32:53.585Z,100780.66
2022-12-27T09:35:21.064Z,100794.78
2022-12-27T09:37:48.535Z,100785.47
2022-12-27T09:40:17.492Z,100787.72
2022-12-27T09:43:00.730Z,100782.56
2022-12-27T09:45:36.790Z,100767.75
2022-12-27T09:48:05.892Z,100778.94
2022-12-27T09:50:36.854Z,100791.69
2022-12-27T09:53:07.752Z,100791.78
2022-12-27T09:55:39.590Z,100785.22
2022-12-27T09:58:16.881Z,100800.28
2022-12-27T10:00:46.649Z,100796.84
2022-12-27T10:03:14.283Z,100793.56
2022-12-27T10:05:44.400Z,100789.00
2022-12-27T10:08:22.799Z,100773.69
2022-12-27T10:10:55.702Z,100787.75
2022-12-27T10:13:42.210Z,100808.13
2022-12-27T10:16:21.040Z,100807.66
2022-12-27T10:19:04.659Z,100795.56
2022-12-27T10:21:35.732Z,100801.94
2022-12-27T10:24:13.746Z,100813.91
2022-12-27T10:26:41.199Z,100821.72
2022-12-27T10:29:16.008Z,100786.84
2022-12-27T10:31:44.958Z,100801.69
2022-12-27T10:34:15.349Z,100809.84
2022-12-27T10:36:44.282Z,100809.69
2022-12-27T10:39:17.337Z,100810.69
2022-12-27T10:41:51.382Z,100808.09
2022-12-27T10:44:18.882Z,100811.50
2022-12-27T10:46:52.747Z,100809.31
2022-12-27T10:49:26.047Z,100812.66
2022-12-27T10:51:54.816Z,100816.91
2022-12-27T10:54:25.040Z,100787.91
2022-12-27T10:56:52.989Z,100812.38
2022-12-27T10:59:22.467Z,100813.66
2022-12-27T11:02:13.063Z,100806.16
2022-12-27T11:04:56.607Z,100801.63
2022-12-27T11:07:24.125Z,100811.94
2022-12-27T11:10:06.638Z,100820.13
2022-12-27T11:12:36.047Z,100813.50
2022-12-27T11:15:06.186Z,100810.84
2022-12-27T11:17:39.911Z,100820.06
2022-12-27T11:20:20.195Z,100821.38
2022-12-27T11:22:49.795Z,100819.88
2022-12-27T11:25:17.960Z,100828.94
2022-12-27T11:27:46.546Z,100821.56
2022-12-27T11:30:23.605Z,100808.28
2022-12-27T11:32:52.854Z,100833.22
2022-12-27T11:35:22.100Z,100795.22
2022-12-27T11:37:50.371Z,100833.72
2022-12-27T11:40:34.682Z,100831.22
2022-12-27T11:43:08.063Z,100841.16
2022-12-27T11:45:39.638Z,100840.66
2022-12-27T11:48:16.785Z,100842.53
2022-12-27T11:50:53.840Z,100839.53
2022-12-27T11:53:58.068Z,100843.03
2022-12-27T11:56:27.739Z,100828.13
2022-12-27T11:59:34.987Z,100823.09
2022-12-27T12:02:31.923Z,100824.44
2022-12-27T12:05:48.511Z,100818.44
2022-12-27T12:08:32.853Z,100828.53
2022-12-27T12:11:07.802Z,100822.56
2022-12-27T12:14:06.116Z,100822.41
2022-12-27T12:16:58.722Z,100813.34
2022-12-27T12:19:37.270Z,100799.94
2022-12-27T12:22:17.692Z,100813.53
2022-12-27T12:25:06.656Z,100813.94
2022-12-27T12:27:43.743Z,100816.63
2022-12-27T12:30:42.497Z,100810.97
2022-12-27T12:33:32.613Z,100814.94
2022-12-27T12:36:17.590Z,100806.84
2022-12-27T12:38:57.623Z,100778.94
2022-12-27T12:41:50.714Z,100798.56
2022-12-27T12:44:41.719Z,100793.19
2022-12-27T12:47:18.403Z,100790.88
2022-12-27T12:49:55.092Z,100776.22
2022-12-27T12:52:41.785Z,100786.97
2022-12-27T12:55:23.938Z,100791.69
2022-12-27T12:58:00.347Z,100791.00
2022-12-27T13:00:40.836Z,100786.75
2022-12-27T13:03:39.301Z,100789.44
2022-12-27T13:06:18.559Z,100799.06
2022-12-27T13:08:49.941Z,100752.50
2022-12-27T13:11:29.808Z,100779.78
2022-12-27T13:14:19.134Z,100777.00
2022-12-27T13:16:54.002Z,100740.91
2022-12-27T13:19:36.501Z,100777.47
2022-12-27T13:22:10.716Z,100776.56
2022-12-27T13:24:47.039Z,100776.56
2022-12-27T13:27:21.742Z,100781.16
2022-12-27T13:30:06.331Z,100757.00
2022-12-27T13:32:43.455Z,100764.72
2022-12-27T13:35:31.638Z,100769.84
2022-12-27T13:38:09.534Z,100735.28
2022-12-27T13:41:06.166Z,100750.75
2022-12-27T13:43:57.451Z,100756.09
2022-12-27T13:46:42.722Z,100752.50
2022-12-27T13:49:23.272Z,100757.81
2022-12-27T13:51:51.895Z,100748.84
2022-12-27T13:54:48.053Z,100753.91
2022-12-27T13:57:28.229Z,100747.25
2022-12-27T14:00:10.076Z,100724.25
2022-12-27T14:02:57.766Z,100736.00
2022-12-27T14:06:00.876Z,100730.44
2022-12-27T14:08:38.621Z,100697.47
2022-12-27T14:11:16.252Z,100724.81
2022-12-27T14:13:44.806Z,100734.59
2022-12-27T14:16:26.711Z,100722.53
2022-12-27T14:19:03.109Z,100727.31
2022-12-27T14:22:03.988Z,100725.50
2022-12-27T14:25:15.830Z,100721.03
2022-12-27T14:28:08.139Z,100727.44
2022-12-27T14:30:52.287Z,100724.53
2022-12-27T14:33:40.667Z,100727.47
2022-12-27T14:36:37.066Z,100728.06
2022-12-27T14:39:27.689Z,100716.72
2022-12-27T14:42:14.585Z,100717.25
2022-12-27T14:45:32.611Z,100715.41
2022-12-27T14:48:41.709Z,100710.59
2022-12-27T14:52:04.475Z,100709.00
2022-12-27T14:54:59.662Z,100706.66
2022-12-27T14:57:34.563Z,100676.53
2022-12-27T15:00:12.052Z,100706.16
2022-12-27T15:02:54.865Z,100703.72
2022-12-27T15:05:38.424Z,100691.59
2022-12-27T15:08:25.167Z,100692.94
2022-12-27T15:11:21.692Z,100697.72
2022-12-27T15:13:59.539Z,100687.81
2022-12-27T15:16:35.134Z,100691.53
2022-12-27T15:19:18.144Z,100687.97
2022-12-27T15:21:55.334Z,100687.06
2022-12-27T15:24:29.561Z,100653.31
2022-12-27T15:27:02.668Z,100678.25
2022-12-27T15:29:39.611Z,100674.97
2022-12-27T15:32:17.226Z,100683.34
2022-12-27T15:34:55.828Z,100687.72
2022-12-27T15:37:51.711Z,100687.16
2022-12-27T15:40:42.960Z,100666.34
2022-12-27T15:43:23.361Z,100686.88
2022-12-27T15:46:36.626Z,100693.13
2022-12-27T15:49:16.258Z,100677.75
2022-12-27T15:51:48.496Z,100679.28
2022-12-27T15:54:56.530Z,100673.31
2022-12-27T15:57:43.793Z,100682.16
2022-12-27T16:00:31.210Z,100682.50
2022-12-27T16:03:02.400Z,100652.28
2022-12-27T16:05:57.336Z,100683.94
2022-12-27T16:08:27.948Z,100673.81
2022-12-27T16:10:56.615Z,100685.94
2022-12-27T16:13:39.375Z,100691.13
2022-12-27T16:16:51.221Z,100687.94
2022-12-27T16:19:26.332Z,100664.97
2022-12-27T16:25:32.704Z,100660.78
2022-12-27T16:28:07.588Z,100672.06
2022-12-27T16:30:43.660Z,100658.88
2022-12-27T16:33:41.464Z,100653.91
2022-12-27T16:37:53.237Z,100659.34
2022-12-27T16:40:35.475Z,100642.34
2022-12-27T16:44:03.877Z,100653.44
2022-12-27T16:46:58.628Z,100649.69
2022-12-27T16:49:59.587Z,100642.53
2022-12-27T16:52:45.184Z,100648.84
2022-12-27T16:55:40.748Z,100648.94
2022-12-27T16:58:36.111Z,100649.44
2022-12-27T17:01:06.558Z,100636.75
2022-12-27T17:03:55.607Z,100631.53
2022-12-27T17:06:55.747Z,100646.41
2022-12-27T17:09:42.616Z,100618.56
2022-12-27T17:12:22.847Z,100628.50
2022-12-27T17:14:55.281Z,100640.31
2022-12-27T17:17:24.429Z,100631.38
2022-12-27T17:19:57.133Z,100624.72
2022-12-27T17:22:32.308Z,100618.81
2022-12-27T17:25:04.036Z,100611.69
2022-12-27T17:27:42.722Z,100628.97
2022-12-27T17:30:18.934Z,100639.03
2022-12-27T17:33:11.668Z,100640.03
2022-12-27T17:35:58.385Z,100617.91
2022-12-27T17:38:35.171Z,100613.59
2022-12-27T17:41:15.845Z,100609.00
2022-12-27T17:44:10.802Z,100614.50
2022-12-27T17:46:57.990Z,100593.38
2022-12-27T17:49:28.899Z,100618.66
2022-12-27T17:52:19.498Z,100608.09
2022-12-27T17:55:05.209Z,100604.19
2022-12-27T17:57:51.158Z,100617.72
2022-12-27T18:00:31.175Z,100615.81
2022-12-27T18:03:04.329Z,100622.63
2022-12-27T18:05:34.287Z,100626.50
2022-12-27T18:08:04.404Z,100603.41
2022-12-27T18:10:34.367Z,100607.88
2022-12-27T18:13:05.364Z,100597.69
2022-12-27T18:15:36.975Z,100611.38
2022-12-27T18:18:08.378Z,100626.47
2022-12-27T18:20:38.604Z,100612.53
2022-12-27T18:23:17.301Z,100613.97
2022-12-27T18:25:54.829Z,100617.41
2022-12-27T18:28:30.439Z,100607.53
2022-12-27T18:31:09.520Z,100598.16
2022-12-27T18:33:40.903Z,100596.63
2022-12-27T18:36:11.668Z,100578.88
2022-12-27T18:38:42.061Z,100591.94
2022-12-27T18:41:12.689Z,100583.94
2022-12-27T18:43:44.380Z,100558.69
2022-12-27T18:46:18.411Z,100560.38
2022-12-27T18:48:46.547Z,100542.84
2022-12-27T18:51:14.306Z,100561.78
2022-12-27T18:53:42.515Z,100552.41
2022-12-27T18:56:26.103Z,100567.72
2022-12-27T18:59:02.721Z,100552.16
2022-12-27T19:01:38.370Z,100554.09
2022-12-27T19:04:23.790Z,100559.50
2022-12-27T19:06:58.019Z,100553.13
2022-12-27T19:09:30.223Z,100556.63
2022-12-27T19:12:03.298Z,100536.84
2022-12-27T19:14:37.204Z,100544.63
2022-12-27T19:17:17.014Z,100555.47
2022-12-27T19:19:47.153Z,100537.31
2022-12-27T19:22:34.215Z,100534.75
2022-12-27T19:25:04.559Z,100543.06
2022-12-27T19:27:32.463Z,100537.75
2022-12-27T19:30:00.418Z,100536.47
2022-12-27T19:32:33.376Z,100525.84
2022-12-27T19:35:04.018Z,100540.00
2022-12-27T19:37:33.420Z,100537.91
2022-12-27T19:40:01.421Z,100533.88
2022-12-27T19:42:31.179Z,100524.94
2022-12-27T19:44:59.232Z,100528.69
2022-12-27T19:47:27.568Z,100518.78
2022-12-27T19:49:56.645Z,100528.03
2022-12-27T19:52:26.430Z,100525.47
2022-12-27T19:54:59.602Z,100532.03
2022-12-27T19:57:27.609Z,100523.75
2022-12-27T19:59:56.491Z,100524.38
2022-12-27T20:02:24.688Z,100522.06
2022-12-27T20:04:52.727Z,100531.47
2022-12-27T20:07:24.070Z,100531.00
2022-12-27T20:09:51.974Z,100526.81
2022-12-27T20:12:20.589Z,100525.22
2022-12-27T20:14:48.643Z,100522.56
2022-12-27T20:17:16.561Z,100527.06
2022-12-27T20:19:44.297Z,100500.75
2022-12-27T20:22:23.505Z,100498.28
2022-12-27T20:24:52.583Z,100511.66
2022-12-27T20:27:23.738Z,100497.78
2022-12-27T20:29:52.151Z,100508.94
2022-12-27T20:32:20.220Z,100497.50
2022-12-27T20:34:48.274Z,100500.88
2022-12-27T20:37:19.721Z,100509.81
2022-12-27T20:39:53.295Z,100497.50
2022-12-27T20:42:21.165Z,100503.06
2022-12-27T20:44:49.033Z,100487.41
2022-12-27T20:47:16.913Z,100500.63
2022-12-27T20:49:44.861Z,100491.72
2022-12-27T20:52:12.883Z,100477.81
2022-12-27T20:54:41.028Z,100495.66
2022-12-27T20:57:10.264Z,100482.72
2022-12-27T20:59:37.857Z,100492.28
2022-12-27T21:02:06.286Z,100481.28
2022-12-27T21:04:34.038Z,100493.75
2022-12-27T21:07:01.905Z,100484.41
2022-12-27T21:09:29.687Z,100453.75
2022-12-27T21:11:57.632Z,100473.28
2022-12-27T21:14:27.915Z,100458.72
2022-12-27T21:16:55.877Z,100456.97
2022-12-27T21:19:23.595Z,100467.13
2022-12-27T21:21:51.482Z,100473.22
2022-12-27T21:24:19.513Z,100467.13
2022-12-27T21:26:51.929Z,100453.63
2022-12-27T21:29:24.050Z,100452.53
2022-12-27T21:31:53.489Z,100469.41
2022-12-27T21:34:22.213Z,100469.03
2022-12-27T21:36:52.335Z,100455.88
2022-12-27T21:39:20.357Z,100465.56
2022-12-27T21:41:48.526Z,100464.75
2022-12-27T21:44:18.006Z,100432.72
2022-12-27T21:46:48.473Z,100436.66
2022-12-27T21:49:17.938Z,100443.84
2022-12-27T21:51:45.863Z,100440.56
2022-12-27T21:54:13.922Z,100443.34
2022-12-27T21:56:41.843Z,100440.38
2022-12-27T21:59:11.241Z,100425.28
2022-12-27T22:01:50.224Z,100398.03
2022-12-27T22:04:21.652Z,100427.31
2022-12-27T22:06:49.914Z,100409.38
2022-12-27T22:09:18.984Z,100413.69
2022-12-27T22:11:47.205Z,100420.06
2022-12-27T22:14:16.381Z,100409.69
2022-12-27T22:16:44.094Z,100413.97
2022-12-27T22:19:13.554Z,100398.31
2022-12-27T22:21:42.966Z,100390.84
2022-12-27T22:24:13.147Z,100403.53
2022-12-27T22:26:41.742Z,100402.22
2022-12-27T22:29:09.456Z,100385.97
2022-12-27T22:31:38.202Z,100399.34
2022-12-27T22:34:06.564Z,100390.34
2022-12-27T22:36:35.063Z,100397.94
2022-12-27T22:39:04.561Z,100409.84
2022-12-27T22:41:33.922Z,100382.00
2022-12-27T22:44:03.000Z,100377.09
2022-12-27T22:46:58.535Z,100395.81
2022-12-27T22:49:19.268Z,100390.00
2022-12-27T22:51:47.151Z,100367.88
2022-12-27T22:54:16.068Z,100380.53
2022-12-27T22:56:44.417Z,100369.69
2022-12-27T22:59:13.565Z,100371.81
2022-12-27T23:01:41.829Z,100369.38
2022-12-27T23:04:11.932Z,100370.84
2022-12-27T23:06:40.303Z,100359.16
2022-12-27T23:09:08.209Z,100358.75
2022-12-27T23:11:40.623Z,100362.38
2022-12-27T23:14:12.594Z,100348.81
2022-12-27T23:16:41.660Z,100351.09
2022-12-27T23:19:09.779Z,100336.09
2022-12-27T23:21:37.439Z,100337.88
2022-12-27T23:24:05.634Z,100326.66
2022-12-27T23:26:33.180Z,100311.53
2022-12-27T23:29:02.077Z,100316.38
2022-12-27T23:31:29.975Z,100303.59
2022-12-27T23:33:57.488Z,100301.47
2022-12-27T23:36:25.234Z,100282.72
2022-12-27T23:38:52.972Z,100285.53
2022-12-27T23:41:21.824Z,100281.19
2022-12-27T23:43:53.339Z,100269.97
2022-12-27T23:46:26.501Z,100264.97
2022-12-27T23:48:54.222Z,100266.41
2022-12-27T23:51:22.147Z,100260.94
2022-12-27T23:53:49.764Z,100250.16
2022-12-27T23:56:19.293Z,100246.81
2022-12-27T23:58:47.891Z,100239.13
